createdAt,value
2023-02-19T00:01:47.231Z,14.25
2023-02-19T00:04:21.792Z,13.48
2023-02-19T00:06:49.470Z,11.30
2023-02-19T00:09:18.992Z,11.68
2023-02-19T00:11:46.385Z,12.95
2023-02-19T00:14:19.183Z,12.30
2023-02-19T00:16:46.780Z,14.02
2023-02-19T00:19:17.094Z,13.30
2023-02-19T00:21:43.834Z,14.82
2023-02-19T00:24:13.626Z,15.68
2023-02-19T00:26:42.770Z,12.20
2023-02-19T00:29:15.455Z,12.82
2023-02-19T00:31:42.840Z,13.10
2023-02-19T00:34:10.154Z,14.05
2023-02-19T00:36:39.416Z,13.88
2023-02-19T00:39:08.310Z,13.05
2023-02-19T00:41:35.169Z,13.43
2023-02-19T00:44:05.305Z,12.13
2023-02-19T00:46:41.985Z,14.57
2023-02-19T00:49:16.440Z,15.93
2023-02-19T00:51:43.210Z,12.85
2023-02-19T00:54:11.731Z,14.55
2023-02-19T00:56:38.655Z,12.95
2023-02-19T00:59:05.455Z,11.65
2023-02-19T01:01:32.272Z,13.00
2023-02-19T01:03:59.041Z,12.90
2023-02-19T01:06:26.063Z,15.45
2023-02-19T01:08:53.199Z,15.32
2023-02-19T01:11:20.287Z,14.30
2023-02-19T01:13:47.243Z,11.68
2023-02-19T01:16:21.171Z,12.77
2023-02-19T01:18:48.760Z,12.70
2023-02-19T01:21:20.956Z,13.85
2023-02-19T01:23:49.685Z,15.88
2023-02-19T01:26:20.866Z,14.23
2023-02-19T01:28:48.963Z,12.60
2023-02-19T01:31:19.874Z,14.32
2023-02-19T01:33:49.621Z,14.43
2023-02-19T01:36:16.825Z,16.42
2023-02-19T01:38:44.719Z,15.10
2023-02-19T01:41:18.950Z,14.55
2023-02-19T01:44:07.771Z,18.23
2023-02-19T01:46:40.203Z,16.17
2023-02-19T01:49:18.807Z,14.32
2023-02-19T01:51:57.412Z,14.68
2023-02-19T01:54:28.745Z,14.10
2023-02-19T01:56:56.782Z,14.98
2023-02-19T01:59:23.556Z,15.13
2023-02-19T02:01:50.495Z,16.02
2023-02-19T02:04:18.729Z,14.63
2023-02-19T02:06:53.028Z,14.75
2023-02-19T02:09:45.349Z,15.80
2023-02-19T02:14:46.103Z,17.60
2023-02-19T02:17:26.933Z,16.85
2023-02-19T02:20:32.523Z,17.80
2023-02-19T02:23:40.747Z,18.73
2023-02-19T02:26:45.824Z,19.73
2023-02-19T02:29:49.458Z,18.75
2023-02-19T02:32:21.913Z,17.58
2023-02-19T02:34:58.777Z,20.20
2023-02-19T02:37:28.467Z,20.98
2023-02-19T02:39:58.118Z,19.40
2023-02-19T02:42:27.476Z,18.98
2023-02-19T02:45:17.593Z,24.77
2023-02-19T02:47:53.589Z,18.17
2023-02-19T02:50:32.123Z,17.23
2023-02-19T02:53:26.501Z,22.00
2023-02-19T02:55:54.119Z,25.63
2023-02-19T02:58:24.396Z,20.63
2023-02-19T03:01:18.410Z,21.48
2023-02-19T03:03:48.797Z,27.38
2023-02-19T03:06:19.524Z,23.85
2023-02-19T03:08:52.865Z,25.35
2023-02-19T03:11:38.472Z,26.10
2023-02-19T03:14:32.071Z,21.60
2023-02-19T03:17:45.224Z,22.30
2023-02-19T03:20:16.039Z,25.63
2023-02-19T03:22:44.892Z,25.88
2023-02-19T03:25:37.682Z,25.52
2023-02-19T03:28:09.018Z,28.77
2023-02-19T03:30:53.667Z,26.17
2023-02-19T03:33:26.581Z,28.25
2023-02-19T03:36:00.030Z,25.13
2023-02-19T03:38:48.280Z,27.92
2023-02-19T03:41:39.566Z,28.05
2023-02-19T03:44:29.098Z,27.45
2023-02-19T03:47:04.869Z,24.38
2023-02-19T03:49:53.657Z,26.33
2023-02-19T03:52:38.764Z,33.25
2023-02-19T03:55:38.690Z,27.88
2023-02-19T03:58:15.497Z,34.45
2023-02-19T04:01:08.598Z,30.48
2023-02-19T04:04:28.115Z,30.70
2023-02-19T04:06:57.363Z,30.17
2023-02-19T04:09:29.764Z,30.02
2023-02-19T04:11:56.887Z,30.10
2023-02-19T04:14:30.630Z,28.58
2023-02-19T04:17:06.569Z,32.25
2023-02-19T04:19:36.817Z,32.97
2023-02-19T04:22:06.107Z,28.70
2023-02-19T04:24:44.810Z,34.97
2023-02-19T04:27:11.600Z,35.72
2023-02-19T04:29:39.382Z,32.58
2023-02-19T04:32:06.622Z,28.88
2023-02-19T04:34:33.579Z,32.00
2023-02-19T04:37:00.287Z,33.58
2023-02-19T04:39:27.134Z,32.85
2023-02-19T04:41:53.890Z,34.95
2023-02-19T04:44:20.794Z,32.97
2023-02-19T04:46:47.966Z,41.33
2023-02-19T04:49:14.724Z,32.53
2023-02-19T04:51:41.726Z,33.75
2023-02-19T04:54:08.948Z,33.58
2023-02-19T04:56:35.740Z,32.08
2023-02-19T04:59:02.587Z,31.33
2023-02-19T05:01:29.694Z,33.53
2023-02-19T05:03:56.475Z,27.60
2023-02-19T05:06:23.259Z,30.25
2023-02-19T05:08:50.070Z,31.10
2023-02-19T05:11:17.136Z,33.80
2023-02-19T05:13:43.924Z,32.45
2023-02-19T05:16:13.996Z,31.73
2023-02-19T05:18:41.340Z,33.33
2023-02-19T05:21:09.367Z,28.80
2023-02-19T05:23:36.763Z,32.63
2023-02-19T05:26:18.566Z,33.70
2023-02-19T05:28:48.307Z,29.35
2023-02-19T05:31:16.169Z,26.25
2023-02-19T05:33:44.112Z,28.88
2023-02-19T05:36:13.076Z,24.70
2023-02-19T06:02:45.215Z,26.77
2023-02-19T06:05:12.753Z,22.60
2023-02-19T06:07:41.534Z,28.98
2023-02-19T06:10:10.415Z,20.40
2023-02-19T06:12:38.373Z,25.33
2023-02-19T06:15:06.527Z,25.73
2023-02-19T06:17:34.293Z,21.17
2023-02-19T06:20:01.776Z,23.98
2023-02-19T06:22:28.524Z,22.65
2023-02-19T06:24:55.278Z,21.52
2023-02-19T06:27:22.070Z,22.27
2023-02-19T06:29:48.889Z,18.92
2023-02-19T06:32:15.763Z,24.02
2023-02-19T06:34:42.558Z,23.50
2023-02-19T06:37:09.313Z,23.08
2023-02-19T06:39:36.547Z,18.38
2023-02-19T06:42:03.599Z,19.33
2023-02-19T06:44:30.312Z,23.08
2023-02-19T06:46:57.321Z,21.83
2023-02-19T06:49:24.082Z,21.65
2023-02-19T06:51:50.821Z,19.52
2023-02-19T06:54:17.561Z,21.90
2023-02-19T06:56:46.931Z,23.25
2023-02-19T06:59:19.001Z,17.08
2023-02-19T07:01:46.409Z,22.23
2023-02-19T07:04:13.266Z,18.63
2023-02-19T07:06:40.526Z,19.67
2023-02-19T07:09:08.595Z,26.42
2023-02-19T07:11:38.842Z,25.48
2023-02-19T07:14:08.560Z,19.02
2023-02-19T07:16:36.188Z,23.08
2023-02-19T07:19:03.103Z,16.60
2023-02-19T07:21:30.069Z,16.50
2023-02-19T07:23:57.480Z,18.08
2023-02-19T07:26:25.016Z,16.80
2023-02-19T07:28:52.447Z,15.95
2023-02-19T07:31:21.839Z,16.75
2023-02-19T07:33:49.196Z,19.33
2023-02-19T07:36:22.968Z,18.67
2023-02-19T07:38:57.476Z,18.02
2023-02-19T07:41:26.114Z,17.85
2023-02-19T07:43:54.325Z,20.73
2023-02-19T07:46:21.947Z,12.75
2023-02-19T07:48:48.718Z,14.65
2023-02-19T07:51:19.058Z,18.95
2023-02-19T07:53:48.138Z,13.07
2023-02-19T07:56:15.226Z,11.40
2023-02-19T07:58:42.293Z,17.70
2023-02-19T08:01:15.475Z,11.65
2023-02-19T08:03:43.157Z,12.60
2023-02-19T08:06:14.082Z,15.23
2023-02-19T08:08:41.008Z,12.90
2023-02-19T08:11:26.384Z,14.13
2023-02-19T08:13:53.623Z,18.77
2023-02-19T08:16:33.277Z,18.45
2023-02-19T08:19:07.778Z,15.75
2023-02-19T08:21:35.394Z,11.73
2023-02-19T08:24:02.179Z,12.55
2023-02-19T08:26:28.893Z,15.18
2023-02-19T08:28:55.658Z,13.70
2023-02-19T08:31:22.489Z,10.40
2023-02-19T08:33:49.450Z,12.77
2023-02-19T08:36:16.410Z,17.13
2023-02-19T08:38:43.329Z,11.57
2023-02-19T08:41:13.953Z,13.65
2023-02-19T08:43:41.969Z,12.35
2023-02-19T08:46:10.541Z,10.20
2023-02-19T08:48:38.436Z,14.63
2023-02-19T08:51:09.615Z,13.02
2023-02-19T08:53:38.327Z,9.40
2023-02-19T08:56:08.573Z,13.55
2023-02-19T08:58:37.318Z,11.30
2023-02-19T09:01:10.671Z,11.88
2023-02-19T09:03:37.671Z,10.32
2023-02-19T09:06:04.812Z,15.70
2023-02-19T09:08:31.576Z,12.18
2023-02-19T09:11:03.491Z,9.70
2023-02-19T09:13:30.613Z,17.52
2023-02-19T09:15:57.415Z,15.35
2023-02-19T09:18:27.546Z,9.98
2023-02-19T09:20:54.415Z,14.65
2023-02-19T09:23:21.286Z,11.80
2023-02-19T09:25:48.088Z,14.90
2023-02-19T09:28:16.748Z,10.40
2023-02-19T09:30:43.540Z,11.27
2023-02-19T09:33:10.295Z,15.95
2023-02-19T09:35:40.514Z,15.88
2023-02-19T09:38:07.308Z,14.73
2023-02-19T09:40:36.966Z,12.27
2023-02-19T09:43:09.230Z,14.45
2023-02-19T09:45:38.027Z,15.95
2023-02-19T09:48:06.202Z,11.48
2023-02-19T09:50:47.963Z,13.38
2023-02-19T09:53:21.978Z,14.32
2023-02-19T09:55:49.370Z,12.15
2023-02-19T09:58:49.250Z,14.35
2023-02-19T10:01:16.774Z,10.77
2023-02-19T10:03:48.569Z,12.75
2023-02-19T10:06:23.603Z,12.45
2023-02-19T10:08:55.303Z,11.68
2023-02-19T10:11:25.704Z,11.63
2023-02-19T10:14:10.817Z,10.18
2023-02-19T10:16:42.386Z,11.73
2023-02-19T10:19:13.987Z,12.75
2023-02-19T10:21:42.054Z,8.40
2023-02-19T10:24:17.037Z,8.73
2023-02-19T10:26:43.800Z,11.68
2023-02-19T10:29:11.276Z,9.65
2023-02-19T10:31:38.102Z,11.02
2023-02-19T10:34:07.483Z,11.77
2023-02-19T10:36:42.655Z,10.65
2023-02-19T10:39:36.543Z,16.30
2023-02-19T10:42:03.975Z,10.13
2023-02-19T10:44:42.731Z,9.40
2023-02-19T10:47:23.969Z,9.45
2023-02-19T10:49:52.590Z,8.37
2023-02-19T10:52:36.141Z,12.27
2023-02-19T10:55:28.943Z,11.20
2023-02-19T10:57:57.411Z,9.98
2023-02-19T11:00:30.445Z,9.02
2023-02-19T11:03:29.999Z,10.00
2023-02-19T11:06:04.935Z,11.30
2023-02-19T11:09:12.586Z,10.10
2023-02-19T11:11:40.534Z,10.10
2023-02-19T11:14:18.633Z,8.02
2023-02-19T11:16:57.628Z,10.30
2023-02-19T11:19:40.906Z,9.63
2023-02-19T11:22:39.805Z,7.38
2023-02-19T11:25:17.590Z,5.75
2023-02-19T11:28:14.637Z,8.73
2023-02-19T11:30:44.129Z,10.23
2023-02-19T11:33:24.506Z,13.45
2023-02-19T11:36:16.196Z,10.52
2023-02-19T11:38:44.292Z,17.80
2023-02-19T11:41:24.758Z,9.90
2023-02-19T11:44:12.984Z,7.35
2023-02-19T11:46:48.991Z,8.43
2023-02-19T11:49:47.904Z,9.32
2023-02-19T11:52:35.963Z,49.88
2023-02-19T11:55:29.053Z,11.50
2023-02-19T11:58:40.999Z,37.03
2023-02-19T12:01:23.446Z,11.02
2023-02-19T12:04:07.827Z,9.27
2023-02-19T12:06:53.071Z,10.20
2023-02-19T12:09:35.598Z,17.67
2023-02-19T12:12:15.336Z,6.70
2023-02-19T12:15:15.235Z,6.28
2023-02-19T12:18:26.833Z,8.18
2023-02-19T12:21:24.397Z,8.40
2023-02-19T12:24:26.289Z,10.10
2023-02-19T12:27:38.295Z,6.78
2023-02-19T12:30:35.359Z,7.28
2023-02-19T12:33:37.818Z,10.20
2023-02-19T12:36:18.884Z,8.75
2023-02-19T12:39:06.545Z,6.43
2023-02-19T12:41:54.133Z,6.28
2023-02-19T12:44:51.894Z,4.50
2023-02-19T12:47:24.184Z,6.65
2023-02-19T12:50:12.770Z,7.18
2023-02-19T12:52:43.282Z,6.78
2023-02-19T12:55:43.516Z,6.53
2023-02-19T12:58:24.600Z,8.82
2023-02-19T13:00:58.902Z,10.63
2023-02-19T13:03:33.225Z,13.30
2023-02-19T13:06:23.600Z,41.78
2023-02-19T13:09:07.363Z,45.88
2023-02-19T13:11:44.288Z,25.63
2023-02-19T13:14:26.395Z,24.15
2023-02-19T13:19:25.122Z,71.00
2023-02-19T13:22:25.781Z,42.65
2023-02-19T13:24:53.308Z,11.27
2023-02-19T13:30:21.597Z,10.63
2023-02-19T13:33:27.542Z,8.63
2023-02-19T13:36:16.708Z,11.90
2023-02-19T13:38:46.796Z,10.32
2023-02-19T13:41:30.070Z,8.77
2023-02-19T13:44:01.877Z,9.48
2023-02-19T13:46:42.892Z,9.05
2023-02-19T13:49:27.815Z,10.13
2023-02-19T13:52:01.672Z,11.27
2023-02-19T13:54:40.034Z,9.65
2023-02-19T13:57:22.352Z,8.80
2023-02-19T13:59:57.250Z,9.75
2023-02-19T14:02:31.022Z,9.10
2023-02-19T14:05:11.615Z,8.80
2023-02-19T14:07:55.404Z,8.20
2023-02-19T14:10:57.629Z,9.25
2023-02-19T14:13:49.466Z,15.10
2023-02-19T14:16:35.055Z,10.10
2023-02-19T14:19:01.920Z,14.02
2023-02-19T14:21:38.866Z,11.57
2023-02-19T14:24:12.070Z,10.32
2023-02-19T14:26:40.667Z,10.07
2023-02-19T14:29:11.938Z,13.73
2023-02-19T14:31:39.073Z,12.93
2023-02-19T14:34:19.455Z,13.93
2023-02-19T14:36:53.197Z,20.40
2023-02-19T14:39:37.716Z,18.85
2023-02-19T14:42:24.953Z,16.35
2023-02-19T14:44:57.293Z,17.98
2023-02-19T14:47:27.410Z,13.88
2023-02-19T14:50:09.126Z,13.65
2023-02-19T14:52:50.067Z,22.70
2023-02-19T14:55:36.138Z,13.50
2023-02-19T14:58:17.890Z,12.10
2023-02-19T15:00:44.709Z,15.88
2023-02-19T15:03:33.820Z,16.83
2023-02-19T15:06:06.290Z,14.32
2023-02-19T15:08:42.685Z,16.13
2023-02-19T15:11:17.511Z,15.52
2023-02-19T15:13:53.985Z,12.30
2023-02-19T15:16:25.707Z,16.17
2023-02-19T15:18:54.460Z,15.32
2023-02-19T15:21:44.931Z,15.85
2023-02-19T15:24:14.732Z,13.80
2023-02-19T15:26:44.896Z,14.15
2023-02-19T15:29:15.629Z,10.93
2023-02-19T15:31:47.371Z,8.45
2023-02-19T15:34:26.832Z,14.23
2023-02-19T15:36:59.582Z,24.55
2023-02-19T15:39:41.477Z,4.82
2023-02-19T15:42:25.656Z,10.77
2023-02-19T15:45:36.753Z,5.20
2023-02-19T15:48:15.177Z,10.05
2023-02-19T15:50:48.033Z,9.90
2023-02-19T15:53:24.864Z,3.42
2023-02-19T15:56:05.552Z,2.40
2023-02-19T15:58:45.491Z,3.90
2023-02-19T16:01:25.102Z,2.78
2023-02-19T16:03:53.990Z,2.38
2023-02-19T16:06:21.856Z,4.03
2023-02-19T16:09:01.687Z,6.28
2023-02-19T16:11:51.068Z,3.65
2023-02-19T16:14:38.580Z,2.83
2023-02-19T16:17:10.107Z,2.65
2023-02-19T16:19:54.719Z,1.90
2023-02-19T16:22:34.920Z,3.15
2023-02-19T16:25:05.172Z,3.47
2023-02-19T16:27:41.440Z,1.17
2023-02-19T16:30:17.330Z,2.17
2023-02-19T16:32:46.747Z,4.50
2023-02-19T16:35:42.222Z,2.42
2023-02-19T16:38:15.086Z,2.35
2023-02-19T16:40:48.023Z,1.63
2023-02-19T16:43:14.714Z,1.33
2023-02-19T16:45:45.220Z,1.35
2023-02-19T16:48:13.140Z,4.03
2023-02-19T16:50:41.447Z,3.33
2023-02-19T16:53:19.826Z,3.10
2023-02-19T16:55:47.308Z,2.65
2023-02-19T16:58:15.169Z,3.70
2023-02-19T17:00:42.182Z,1.17
2023-02-19T17:03:17.549Z,1.35
2023-02-19T17:05:44.869Z,2.10
2023-02-19T17:08:36.899Z,1.30
2023-02-19T17:11:07.501Z,2.90
2023-02-19T17:13:34.385Z,1.08
2023-02-19T17:16:01.793Z,0.98
2023-02-19T17:18:28.790Z,2.90
2023-02-19T17:21:12.521Z,1.55
2023-02-19T17:23:39.436Z,0.80
2023-02-19T17:26:06.157Z,1.10
2023-02-19T17:28:32.906Z,1.58
2023-02-19T17:30:59.663Z,1.63
2023-02-19T17:33:26.373Z,1.45
2023-02-19T17:35:53.126Z,3.92
2023-02-19T17:38:19.827Z,1.98
2023-02-19T17:40:46.548Z,1.58
2023-02-19T17:43:13.548Z,1.58
2023-02-19T17:45:40.408Z,1.60
2023-02-19T17:48:11.835Z,1.10
2023-02-19T17:50:38.553Z,1.10
2023-02-19T17:53:05.330Z,1.15
2023-02-19T17:55:33.525Z,3.92
2023-02-19T17:58:01.094Z,2.33
2023-02-19T18:00:30.142Z,2.92
2023-02-19T18:02:57.230Z,2.63
2023-02-19T18:05:24.406Z,1.13
2023-02-19T18:07:51.194Z,1.63
2023-02-19T18:10:20.123Z,1.33
2023-02-19T18:12:47.245Z,4.93
2023-02-19T18:15:22.558Z,0.70
2023-02-19T18:17:50.064Z,1.73
2023-02-19T18:20:21.502Z,1.13
2023-02-19T18:22:48.347Z,1.50
2023-02-19T18:25:16.416Z,0.88
2023-02-19T18:27:43.611Z,2.13
2023-02-19T18:30:11.675Z,5.25
2023-02-19T18:32:38.735Z,0.80
2023-02-19T18:35:06.041Z,0.50
2023-02-19T18:37:33.843Z,0.98
2023-02-19T18:40:01.512Z,0.57
2023-02-19T18:42:28.724Z,0.82
2023-02-19T18:44:56.214Z,1.13
2023-02-19T18:47:27.587Z,1.80
2023-02-19T18:49:56.479Z,1.98
2023-02-19T18:52:25.793Z,1.55
2023-02-19T18:54:55.006Z,1.83
2023-02-19T18:57:24.328Z,2.35
2023-02-19T18:59:51.163Z,1.35
2023-02-19T19:02:19.005Z,2.83
2023-02-19T19:04:53.946Z,2.08
2023-02-19T19:07:21.143Z,1.45
2023-02-19T19:09:48.126Z,1.13
2023-02-19T19:12:15.451Z,2.38
2023-02-19T19:14:42.497Z,2.97
2023-02-19T19:17:13.292Z,3.58
2023-02-19T19:19:41.123Z,2.30
2023-02-19T19:22:07.912Z,1.15
2023-02-19T19:24:36.641Z,1.38
2023-02-19T19:27:03.410Z,1.50
2023-02-19T19:29:30.208Z,2.45
2023-02-19T19:31:57.077Z,1.95
2023-02-19T19:34:23.962Z,1.65
2023-02-19T19:36:50.680Z,2.45
2023-02-19T19:39:17.395Z,0.85
2023-02-19T19:41:44.307Z,0.75
2023-02-19T19:44:12.131Z,1.00
2023-02-19T19:46:45.799Z,2.25
2023-02-19T19:49:17.090Z,1.48
2023-02-19T19:51:43.960Z,3.27
2023-02-19T19:54:11.730Z,4.05
2023-02-19T19:56:43.888Z,1.88
2023-02-19T20:01:39.212Z,2.20
2023-02-19T20:04:06.268Z,2.33
2023-02-19T20:06:33.356Z,1.60
2023-02-19T20:09:00.205Z,1.80
2023-02-19T20:11:27.262Z,2.05
2023-02-19T20:13:54.042Z,3.90
2023-02-19T20:16:28.781Z,2.67
2023-02-19T20:18:55.543Z,1.48
2023-02-19T20:21:22.285Z,0.90
2023-02-19T20:23:49.021Z,1.80
2023-02-19T20:26:26.124Z,1.65
2023-02-19T20:28:53.924Z,2.70
2023-02-19T20:31:21.413Z,3.28
2023-02-19T20:33:51.006Z,2.75
2023-02-19T20:36:20.016Z,2.15
2023-02-19T20:38:49.428Z,3.72
2023-02-19T20:41:16.601Z,2.55
2023-02-19T20:43:43.320Z,5.93
2023-02-19T20:46:10.773Z,2.35
2023-02-19T20:48:37.722Z,2.38
2023-02-19T20:51:04.834Z,4.28
2023-02-19T20:53:32.082Z,2.05
2023-02-19T20:55:59.300Z,2.33
2023-02-19T20:58:26.272Z,3.58
2023-02-19T21:00:55.837Z,3.30
2023-02-19T21:03:22.730Z,2.35
2023-02-19T21:05:49.471Z,2.35
2023-02-19T21:08:17.254Z,2.72
2023-02-19T21:10:47.469Z,2.40
2023-02-19T21:13:14.403Z,1.70
2023-02-19T21:15:41.404Z,2.58
2023-02-19T21:18:08.224Z,4.55
2023-02-19T21:20:35.088Z,2.50
2023-02-19T21:23:01.941Z,2.90
2023-02-19T21:25:28.804Z,3.38
2023-02-19T21:27:55.668Z,2.60
2023-02-19T21:30:22.519Z,2.17
2023-02-19T21:32:49.246Z,5.03
2023-02-19T21:35:16.073Z,3.03
2023-02-19T21:37:44.278Z,2.17
2023-02-19T21:40:13.274Z,2.55
2023-02-19T21:42:40.050Z,2.85
2023-02-19T21:45:07.544Z,3.13
2023-02-19T21:47:34.261Z,3.78
2023-02-19T21:50:01.011Z,4.28
2023-02-19T21:52:28.709Z,4.40
2023-02-19T21:54:55.517Z,6.15
2023-02-19T21:57:23.166Z,3.70
2023-02-19T21:59:49.982Z,2.78
2023-02-19T22:02:19.800Z,4.13
2023-02-19T22:04:46.857Z,2.97
2023-02-19T22:07:13.625Z,4.95
2023-02-19T22:09:40.454Z,4.75
2023-02-19T22:12:07.375Z,5.50
2023-02-19T22:14:34.114Z,5.47
2023-02-19T22:17:00.837Z,5.35
2023-02-19T22:19:27.738Z,6.57
2023-02-19T22:21:54.473Z,6.50
2023-02-19T22:24:22.716Z,6.47
2023-02-19T22:26:50.938Z,7.40
2023-02-19T22:29:18.051Z,10.35
2023-02-19T22:31:45.079Z,6.32
2023-02-19T22:34:12.239Z,8.90
2023-02-19T22:36:39.675Z,8.32
2023-02-19T22:39:10.771Z,7.18
2023-02-19T22:41:42.986Z,10.55
2023-02-19T22:46:37.746Z,9.80
2023-02-19T22:49:06.413Z,10.43
2023-02-19T22:51:35.439Z,9.40
2023-02-19T22:54:02.274Z,11.57
2023-02-19T22:56:29.344Z,9.98
2023-02-19T22:58:57.492Z,9.40
2023-02-19T23:01:25.158Z,11.70
2023-02-19T23:03:55.852Z,11.65
2023-02-19T23:06:31.899Z,11.73
2023-02-19T23:09:06.594Z,12.88
2023-02-19T23:11:38.761Z,13.15
2023-02-19T23:16:35.711Z,11.57
2023-02-19T23:19:04.896Z,14.27
2023-02-19T23:21:32.647Z,14.52
2023-02-19T23:23:59.505Z,14.20
2023-02-19T23:26:26.341Z,13.88
2023-02-19T23:28:53.098Z,13.48
2023-02-19T23:31:20.040Z,18.83
2023-02-19T23:33:47.109Z,18.15
2023-02-19T23:36:14.885Z,15.38
2023-02-19T23:38:45.502Z,15.73
2023-02-19T23:41:14.918Z,15.13
2023-02-19T23:43:42.134Z,15.23
2023-02-19T23:46:09.284Z,16.73
2023-02-19T23:48:36.078Z,14.68
2023-02-19T23:51:02.966Z,18.40
2023-02-19T23:53:29.736Z,17.00
2023-02-19T23:55:56.750Z,12.60
2023-02-19T23:58:23.478Z,14.45
